Wetterdaten: aktuell Donnerstag, 21.03.2019 22:35
Datum Zeit Temp. A. Feuchte A. Luftdruck Regen Wind Richtung Richtung Taupunkt Windchill Windben
21.03.2019 22:35 0,6 C 78 % 1034,5 hPa 0,0 l/m 1,6 km/h (1 Bft) N 360 -2,8 C 0,6 C 3,2 km/h (1 Bft)
21.03.2019 21:35 0,8 C 79 % 1034,6 hPa 0,0 l/m 0,0 km/h (0 Bft) NO 45 -2,4 C 0,8 C 1,6 km/h (1 Bft)
21.03.2019 20:35 1,5 C 76 % 1034,7 hPa 0,0 l/m 0,0 km/h (0 Bft) NO 45 -2,3 C 1,5 C 1,6 km/h (1 Bft)
21.03.2019 19:35 3,7 C 72 % 1034,7 hPa 0,0 l/m 0,0 km/h (0 Bft) NO 45 -0,9 C 3,7 C 1,6 km/h (1 Bft)
21.03.2019 18:35 6,8 C 60 % 1034,4 hPa 0,0 l/m 0,0 km/h (0 Bft) N 0 -0,4 C 6,8 C 0,0 km/h (0 Bft)
21.03.2019 17:35 10,1 C 47 % 1033,9 hPa 0,0 l/m 9,7 km/h (2 Bft) NO 45 -0,7 C 7,9 C 14,5 km/h (3 Bft)
21.03.2019 16:35 11,2 C 47 % 1033,9 hPa 0,0 l/m 8,0 km/h (2 Bft) NO 45 0,3 C 10,1 C 12,9 km/h (3 Bft)
21.03.2019 15:35 11,5 C 46 % 1034,1 hPa 0,0 l/m 14,5 km/h (3 Bft) O-NO 67 0,3 C 7,2 C 19,3 km/h (3 Bft)
21.03.2019 14:35 10,9 C 51 % 1034,6 hPa 0,0 l/m 11,3 km/h (2 Bft) O-NO 67 1,2 C 7,9 C 17,7 km/h (3 Bft)
21.03.2019 13:35 10,4 C 50 % 1035,2 hPa 0,0 l/m 16,1 km/h (3 Bft) O-NO 67 0,4 C 5,2 C 22,5 km/h (4 Bft)
21.03.2019 12:35 9,4 C 47 % 1036,1 hPa 0,0 l/m 9,7 km/h (2 Bft) O-NO 67 -1,3 C 7,1 C 14,5 km/h (3 Bft)
21.03.2019 11:35 7,9 C 52 % 1036,6 hPa 0,0 l/m 11,3 km/h (2 Bft) O-NO 67 -1,3 C 4,5 C 19,3 km/h (3 Bft)
21.03.2019 10:35 7,3 C 53 % 1036,8 hPa 0,0 l/m 17,7 km/h (3 Bft) NO 45 -1,6 C 0,7 C 22,5 km/h (4 Bft)
21.03.2019 09:35 5,3 C 60 % 1037,2 hPa 0,0 l/m 17,7 km/h (3 Bft) NO 45 -1,8 C -1,8 C 19,3 km/h (3 Bft)
21.03.2019 08:35 2,3 C 73 % 1037,4 hPa 0,0 l/m 8,0 km/h (2 Bft) O-NO 67 -2,0 C 0,8 C 12,9 km/h (3 Bft)
21.03.2019 07:35 -0,7 C 84 % 1037,3 hPa 0,0 l/m 3,2 km/h (1 Bft) O 90 -3,1 C -0,7 C 4,8 km/h (1 Bft)
21.03.2019 06:35 -3,8 C 89 % 1036,5 hPa 0,0 l/m 0,0 km/h (0 Bft) N 0 -5,3 C -3,8 C 0,0 km/h (0 Bft)
21.03.2019 05:35 -4,7 C 89 % 1036,8 hPa 0,0 l/m 0,0 km/h (0 Bft) O 90 -6,2 C -4,7 C 1,6 km/h (1 Bft)
21.03.2019 04:35 -4,7 C 89 % 1037,1 hPa 0,0 l/m 0,0 km/h (0 Bft) N 0 -6,2 C -4,7 C 0,0 km/h (0 Bft)
21.03.2019 03:35 -4,3 C 88 % 1037,1 hPa 0,0 l/m 0,0 km/h (0 Bft) N 0 -6,0 C -4,3 C 0,0 km/h (0 Bft)
21.03.2019 02:35 -3,1 C 88 % 1037,2 hPa 0,0 l/m 0,0 km/h (0 Bft) N 0 -4,8 C -3,1 C 0,0 km/h (0 Bft)
21.03.2019 01:35 -2,8 C 88 % 1037,6 hPa 0,0 l/m 0,0 km/h (0 Bft) N 0 -4,5 C -2,8 C 0,0 km/h (0 Bft)
21.03.2019 00:35 -2,3 C 85 % 1037,7 hPa 0,0 l/m 0,0 km/h (0 Bft) N 0 -4,5 C -2,3 C 0,0 km/h (0 Bft)
20.03.2019 23:35 -2,0 C 85 % 1037,7 hPa 0,0 l/m 0,0 km/h (0 Bft) N 0 -4,2 C -2,0 C 0,0 km/h (0 Bft)
20.03.2019 23:00 -1,7 C 85 % 1038,0 hPa 0,0 l/m 0,0 km/h (0 Bft) N 0 -3,9 C -1,7 C 0,0 km/h (0 Bft)
_ Min-Zeit 05:54 16:14 16:54 - 23:00 - - 05:54 05:54 23:00
Minimum _ -5,6 C 43 % 1033,8 hPa - 0,0 km/h (0 Bft) - - -7,4 C -5,6 C 0,0 km/h (0 Bft)
_ Max-Zeit 15:38 04:10 23:00 23:00 11:07 - - 14:25 15:47 10:36
Maximum _ 11,7 C 90 % 1038,0 hPa 0,0 l/m 22,5 km/h
NO (4 Bft)
- - 1,3 C 11,7 C 32,2 km/h
NO (5 Bft)
Durchschnitt _ 2,6 C 71 % 1036,2 hPa #0,0 l/m 4,9 km/h (1 Bft) NO - -2,6 C 1,3 C 7,3 km/h (2 Bft)